Alt de Algarrobo, Puerto Rico
Current Conditions -  °F | °C
As of 1:50 PM on Friday 24 Oct 2014 (Local Time) from TJBQ Reporting Station
Broken Clouds Broken Clouds  
Wind Chill: 84°   Ceiling: 3400
Heat Index: 92°   Visibility: 10mi
Dew Point: 75°   Wind: 6mph
Humidity: 74%   Direction: 320°NW
Pressure: 29.9"   Gusts: NA
Location:  18.203°N, 67.14°W
Report Text: TJBQ 241750Z 32005KT 10SM BKN034 BKN047 29/24 A2990 RMK RWY08 - ATIS X
Loading
Personal Weather Stations






























Interactive Weather Map New forecast layout! Learn more

10-Day Weather Forecast

Advertisements
Track Severe Weather on mobile